sensor_id;sensor_type;location;lat;lon;timestamp;temperature;humidity
15184;DHT22;7693;49.266;7.104;2023-04-15T05:26:37;4.40;99.90
15184;DHT22;7693;49.266;7.104;2023-04-15T05:29:02;4.40;99.90
15184;DHT22;7693;49.266;7.104;2023-04-15T05:31:28;4.50;99.90
15184;DHT22;7693;49.266;7.104;2023-04-15T05:33:53;4.50;99.90
15184;DHT22;7693;49.266;7.104;2023-04-15T05:36:19;4.60;99.90
15184;DHT22;7693;49.266;7.104;2023-04-15T05:38:48;4.70;99.90
15184;DHT22;7693;49.266;7.104;2023-04-15T05:41:14;4.80;99.90
15184;DHT22;7693;49.266;7.104;2023-04-15T05:43:42;4.90;99.90
15184;DHT22;7693;49.266;7.104;2023-04-15T05:46:08;5.00;99.90
15184;DHT22;7693;49.266;7.104;2023-04-15T05:48:33;5.10;99.90
15184;DHT22;7693;49.266;7.104;2023-04-15T05:50:59;5.10;99.90
15184;DHT22;7693;49.266;7.104;2023-04-15T05:53:25;5.10;99.90
15184;DHT22;7693;49.266;7.104;2023-04-15T05:55:51;5.20;99.90
15184;DHT22;7693;49.266;7.104;2023-04-15T05:58:16;5.30;99.90
15184;DHT22;7693;49.266;7.104;2023-04-15T06:00:42;5.30;99.90
15184;DHT22;7693;49.266;7.104;2023-04-15T06:03:09;5.40;99.90
15184;DHT22;7693;49.266;7.104;2023-04-15T06:05:36;5.50;99.90
15184;DHT22;7693;49.266;7.104;2023-04-15T06:08:01;5.50;99.90
15184;DHT22;7693;49.266;7.104;2023-04-15T06:10:27;5.60;99.90
15184;DHT22;7693;49.266;7.104;2023-04-15T06:12:52;5.70;99.90
15184;DHT22;7693;49.266;7.104;2023-04-15T06:15:18;5.80;99.90
15184;DHT22;7693;49.266;7.104;2023-04-15T06:17:44;6.00;99.90
15184;DHT22;7693;49.266;7.104;2023-04-15T06:20:10;6.10;99.90
15184;DHT22;7693;49.266;7.104;2023-04-15T06:22:36;6.20;99.90
15184;DHT22;7693;49.266;7.104;2023-04-15T06:25:03;6.30;99.90
15184;DHT22;7693;49.266;7.104;2023-04-15T06:27:29;6.40;99.90
15184;DHT22;7693;49.266;7.104;2023-04-15T06:29:55;6.50;99.90
15184;DHT22;7693;49.266;7.104;2023-04-15T06:32:21;6.50;99.90
15184;DHT22;7693;49.266;7.104;2023-04-15T06:34:46;6.60;99.90
15184;DHT22;7693;49.266;7.104;2023-04-15T06:37:12;6.70;99.90
15184;DHT22;7693;49.266;7.104;2023-04-15T06:39:40;6.80;99.90
15184;DHT22;7693;49.266;7.104;2023-04-15T06:42:07;6.90;99.90
15184;DHT22;7693;49.266;7.104;2023-04-15T06:44:33;7.00;99.90
15184;DHT22;7693;49.266;7.104;2023-04-15T06:46:59;7.10;99.90
15184;DHT22;7693;49.266;7.104;2023-04-15T06:49:28;7.10;99.90
15184;DHT22;7693;49.266;7.104;2023-04-15T06:51:53;7.20;99.90
15184;DHT22;7693;49.266;7.104;2023-04-15T06:54:19;7.20;99.90
15184;DHT22;7693;49.266;7.104;2023-04-15T06:56:44;7.20;99.90
15184;DHT22;7693;49.266;7.104;2023-04-15T06:59:10;7.30;99.90
15184;DHT22;7693;49.266;7.104;2023-04-15T07:01:36;7.30;99.90
15184;DHT22;7693;49.266;7.104;2023-04-15T07:04:01;7.30;99.90
15184;DHT22;7693;49.266;7.104;2023-04-15T07:06:27;7.40;99.90
15184;DHT22;7693;49.266;7.104;2023-04-15T07:08:52;7.40;99.90
15184;DHT22;7693;49.266;7.104;2023-04-15T07:11:19;7.50;99.90
15184;DHT22;7693;49.266;7.104;2023-04-15T07:13:45;7.50;99.90
15184;DHT22;7693;49.266;7.104;2023-04-15T07:16:11;7.60;99.90
15184;DHT22;7693;49.266;7.104;2023-04-15T07:18:37;7.60;99.90
15184;DHT22;7693;49.266;7.104;2023-04-15T07:21:03;7.70;99.90
15184;DHT22;7693;49.266;7.104;2023-04-15T07:23:29;7.80;99.90
15184;DHT22;7693;49.266;7.104;2023-04-15T07:25:54;7.90;99.90
15184;DHT22;7693;49.266;7.104;2023-04-15T07:28:21;8.00;99.90
15184;DHT22;7693;49.266;7.104;2023-04-15T07:30:47;8.10;99.90
15184;DHT22;7693;49.266;7.104;2023-04-15T07:33:13;8.30;99.90
15184;DHT22;7693;49.266;7.104;2023-04-15T07:35:38;8.50;99.90
15184;DHT22;7693;49.266;7.104;2023-04-15T07:38:04;8.60;99.90
15184;DHT22;7693;49.266;7.104;2023-04-15T07:40:29;8.80;99.90
15184;DHT22;7693;49.266;7.104;2023-04-15T07:42:55;8.90;99.90
15184;DHT22;7693;49.266;7.104;2023-04-15T07:45:22;9.20;99.90
15184;DHT22;7693;49.266;7.104;2023-04-15T07:47:48;9.40;99.90
15184;DHT22;7693;49.266;7.104;2023-04-15T07:50:15;9.50;99.90
15184;DHT22;7693;49.266;7.104;2023-04-15T07:52:42;9.60;99.90
15184;DHT22;7693;49.266;7.104;2023-04-15T07:55:08;9.70;99.90
15184;DHT22;7693;49.266;7.104;2023-04-15T07:57:34;9.90;99.90
15184;DHT22;7693;49.266;7.104;2023-04-15T13:29:36;16.30;93.60
15184;DHT22;7693;49.266;7.104;2023-04-15T13:32:02;16.30;93.70
15184;DHT22;7693;49.266;7.104;2023-04-15T13:34:27;16.20;93.40
15184;DHT22;7693;49.266;7.104;2023-04-15T13:36:53;16.20;93.20
15184;DHT22;7693;49.266;7.104;2023-04-15T13:41:47;16.10;93.30
15184;DHT22;7693;49.266;7.104;2023-04-15T13:44:12;16.10;92.20
15184;DHT22;7693;49.266;7.104;2023-04-15T13:46:39;16.00;91.50
15184;DHT22;7693;49.266;7.104;2023-04-15T13:49:06;16.10;91.90
15184;DHT22;7693;49.266;7.104;2023-04-15T13:51:31;16.20;92.10
15184;DHT22;7693;49.266;7.104;2023-04-15T13:53:57;16.30;92.20
15184;DHT22;7693;49.266;7.104;2023-04-15T13:56:23;16.30;90.80
15184;DHT22;7693;49.266;7.104;2023-04-15T13:58:48;16.10;90.50
15184;DHT22;7693;49.266;7.104;2023-04-15T14:01:14;16.10;89.90
15184;DHT22;7693;49.266;7.104;2023-04-15T14:03:40;16.00;90.40
15184;DHT22;7693;49.266;7.104;2023-04-15T14:06:06;16.00;90.30
15184;DHT22;7693;49.266;7.104;2023-04-15T14:08:31;16.10;90.50
15184;DHT22;7693;49.266;7.104;2023-04-15T14:10:57;16.10;90.30
15184;DHT22;7693;49.266;7.104;2023-04-15T14:13:23;16.10;90.50
15184;DHT22;7693;49.266;7.104;2023-04-15T14:15:48;16.00;88.70
15184;DHT22;7693;49.266;7.104;2023-04-15T14:18:14;15.90;90.00
15184;DHT22;7693;49.266;7.104;2023-04-15T14:20:40;15.80;90.00
15184;DHT22;7693;49.266;7.104;2023-04-15T14:23:05;15.80;89.80
15184;DHT22;7693;49.266;7.104;2023-04-15T14:25:31;15.80;90.50
15184;DHT22;7693;49.266;7.104;2023-04-15T14:27:56;15.90;90.60
15184;DHT22;7693;49.266;7.104;2023-04-15T14:30:22;15.90;90.60
15184;DHT22;7693;49.266;7.104;2023-04-15T14:32:47;16.00;90.40
15184;DHT22;7693;49.266;7.104;2023-04-15T14:35:13;16.00;89.80
15184;DHT22;7693;49.266;7.104;2023-04-15T14:37:39;16.00;90.20
15184;DHT22;7693;49.266;7.104;2023-04-15T14:40:05;16.30;90.70
15184;DHT22;7693;49.266;7.104;2023-04-15T14:42:30;16.60;91.00
15184;DHT22;7693;49.266;7.104;2023-04-15T14:44:56;17.00;90.40
15184;DHT22;7693;49.266;7.104;2023-04-15T14:47:21;17.10;90.70
15184;DHT22;7693;49.266;7.104;2023-04-15T14:49:47;17.30;90.00
15184;DHT22;7693;49.266;7.104;2023-04-15T14:52:13;17.20;86.90
15184;DHT22;7693;49.266;7.104;2023-04-15T14:54:38;16.90;88.90
15184;DHT22;7693;49.266;7.104;2023-04-15T14:57:04;16.70;87.20
15184;DHT22;7693;49.266;7.104;2023-04-15T14:59:29;16.50;87.70
15184;DHT22;7693;49.266;7.104;2023-04-15T15:01:55;16.40;88.80
15184;DHT22;7693;49.266;7.104;2023-04-15T15:04:20;16.30;88.70
15184;DHT22;7693;49.266;7.104;2023-04-15T15:06:46;16.30;89.00
15184;DHT22;7693;49.266;7.104;2023-04-15T15:09:12;16.20;88.80
15184;DHT22;7693;49.266;7.104;2023-04-15T15:11:37;16.20;89.30
15184;DHT22;7693;49.266;7.104;2023-04-15T15:14:03;16.20;88.90
15184;DHT22;7693;49.266;7.104;2023-04-15T15:16:28;16.20;89.10
15184;DHT22;7693;49.266;7.104;2023-04-15T15:18:54;16.20;89.50
15184;DHT22;7693;49.266;7.104;2023-04-15T15:21:20;16.10;88.70
15184;DHT22;7693;49.266;7.104;2023-04-15T15:23:45;16.10;89.00
15184;DHT22;7693;49.266;7.104;2023-04-15T15:26:12;16.00;89.30
15184;DHT22;7693;49.266;7.104;2023-04-15T15:28:38;16.00;88.70
15184;DHT22;7693;49.266;7.104;2023-04-15T15:31:04;15.90;88.10
15184;DHT22;7693;49.266;7.104;2023-04-15T15:33:30;15.80;87.80
15184;DHT22;7693;49.266;7.104;2023-04-15T15:35:56;15.80;88.30
15184;DHT22;7693;49.266;7.104;2023-04-15T15:38:22;15.80;89.00
15184;DHT22;7693;49.266;7.104;2023-04-15T15:40:48;15.80;88.40
15184;DHT22;7693;49.266;7.104;2023-04-15T15:43:13;15.70;88.80
15184;DHT22;7693;49.266;7.104;2023-04-15T15:45:39;15.70;88.40
15184;DHT22;7693;49.266;7.104;2023-04-15T15:48:05;15.70;88.30
15184;DHT22;7693;49.266;7.104;2023-04-15T15:50:32;15.70;88.40
15184;DHT22;7693;49.266;7.104;2023-04-15T15:52:58;15.60;87.90
15184;DHT22;7693;49.266;7.104;2023-04-15T15:55:23;15.60;88.00
15184;DHT22;7693;49.266;7.104;2023-04-15T15:57:50;15.40;87.40
15184;DHT22;7693;49.266;7.104;2023-04-15T16:00:16;15.30;87.50
15184;DHT22;7693;49.266;7.104;2023-04-15T16:02:42;15.20;87.80
15184;DHT22;7693;49.266;7.104;2023-04-15T16:05:08;15.20;87.90
15184;DHT22;7693;49.266;7.104;2023-04-15T16:07:33;15.10;88.40
15184;DHT22;7693;49.266;7.104;2023-04-15T16:09:59;15.10;88.40
15184;DHT22;7693;49.266;7.104;2023-04-15T16:12:24;15.10;88.40
15184;DHT22;7693;49.266;7.104;2023-04-15T16:14:51;15.00;88.60
15184;DHT22;7693;49.266;7.104;2023-04-15T16:17:16;15.00;88.20
15184;DHT22;7693;49.266;7.104;2023-04-15T16:19:42;14.90;88.80
15184;DHT22;7693;49.266;7.104;2023-04-15T16:22:07;14.90;88.90
15184;DHT22;7693;49.266;7.104;2023-04-15T16:24:33;14.90;89.10
15184;DHT22;7693;49.266;7.104;2023-04-15T16:26:58;14.90;89.20
15184;DHT22;7693;49.266;7.104;2023-04-15T16:29:24;14.90;89.20
15184;DHT22;7693;49.266;7.104;2023-04-15T16:31:50;14.80;89.00
15184;DHT22;7693;49.266;7.104;2023-04-15T16:34:16;14.80;89.10
15184;DHT22;7693;49.266;7.104;2023-04-15T16:36:42;14.70;89.10
15184;DHT22;7693;49.266;7.104;2023-04-15T16:39:08;14.60;89.00
15184;DHT22;7693;49.266;7.104;2023-04-15T16:41:34;14.60;89.30
15184;DHT22;7693;49.266;7.104;2023-04-15T16:43:59;14.50;89.30
15184;DHT22;7693;49.266;7.104;2023-04-15T16:46:26;14.50;89.40
15184;DHT22;7693;49.266;7.104;2023-04-15T16:48:53;14.50;89.30
15184;DHT22;7693;49.266;7.104;2023-04-15T16:51:19;14.40;89.20
15184;DHT22;7693;49.266;7.104;2023-04-15T16:53:45;14.30;89.20
15184;DHT22;7693;49.266;7.104;2023-04-15T16:56:10;14.20;89.30
15184;DHT22;7693;49.266;7.104;2023-04-15T16:58:36;14.20;89.50
15184;DHT22;7693;49.266;7.104;2023-04-15T17:01:02;14.10;89.60
15184;DHT22;7693;49.266;7.104;2023-04-15T17:03:27;14.00;89.60
15184;DHT22;7693;49.266;7.104;2023-04-15T17:05:53;14.10;89.70
15184;DHT22;7693;49.266;7.104;2023-04-15T17:08:18;14.00;89.70
15184;DHT22;7693;49.266;7.104;2023-04-15T17:10:44;14.00;89.70
15184;DHT22;7693;49.266;7.104;2023-04-15T17:13:09;13.90;89.60
15184;DHT22;7693;49.266;7.104;2023-04-15T17:15:35;13.80;89.70
15184;DHT22;7693;49.266;7.104;2023-04-15T17:18:01;13.80;90.00
15184;DHT22;7693;49.266;7.104;2023-04-15T17:20:26;13.70;90.00
15184;DHT22;7693;49.266;7.104;2023-04-15T17:22:52;13.60;90.00
15184;DHT22;7693;49.266;7.104;2023-04-15T17:25:18;13.60;90.10
15184;DHT22;7693;49.266;7.104;2023-04-15T17:27:43;13.50;90.00
15184;DHT22;7693;49.266;7.104;2023-04-15T17:30:09;13.40;90.00
15184;DHT22;7693;49.266;7.104;2023-04-15T17:32:35;13.40;90.20
15184;DHT22;7693;49.266;7.104;2023-04-15T17:35:03;13.40;90.30
15184;DHT22;7693;49.266;7.104;2023-04-15T17:37:31;13.30;90.30
15184;DHT22;7693;49.266;7.104;2023-04-15T17:39:57;13.30;90.40
15184;DHT22;7693;49.266;7.104;2023-04-15T17:42:22;13.30;90.60
15184;DHT22;7693;49.266;7.104;2023-04-15T17:44:48;13.30;90.50
15184;DHT22;7693;49.266;7.104;2023-04-15T17:47:13;13.30;90.60
15184;DHT22;7693;49.266;7.104;2023-04-15T17:49:39;13.30;90.60
15184;DHT22;7693;49.266;7.104;2023-04-15T17:52:05;13.20;90.70
15184;DHT22;7693;49.266;7.104;2023-04-15T17:54:30;13.20;90.70
15184;DHT22;7693;49.266;7.104;2023-04-15T17:56:56;13.20;90.70
15184;DHT22;7693;49.266;7.104;2023-04-15T17:59:22;13.10;90.70
15184;DHT22;7693;49.266;7.104;2023-04-15T18:01:48;13.00;90.70
15184;DHT22;7693;49.266;7.104;2023-04-15T18:04:13;13.00;90.80
15184;DHT22;7693;49.266;7.104;2023-04-15T18:06:39;13.00;91.00
15184;DHT22;7693;49.266;7.104;2023-04-15T18:09:05;13.00;90.90
15184;DHT22;7693;49.266;7.104;2023-04-15T18:11:31;12.90;91.00
15184;DHT22;7693;49.266;7.104;2023-04-15T18:13:58;12.90;91.10
15184;DHT22;7693;49.266;7.104;2023-04-15T18:16:24;12.80;91.00
15184;DHT22;7693;49.266;7.104;2023-04-15T18:18:50;12.70;91.20
15184;DHT22;7693;49.266;7.104;2023-04-15T18:21:16;12.60;91.20
15184;DHT22;7693;49.266;7.104;2023-04-15T18:23:42;12.60;91.20
15184;DHT22;7693;49.266;7.104;2023-04-15T18:26:07;12.50;91.40
15184;DHT22;7693;49.266;7.104;2023-04-15T18:28:33;12.50;91.50
15184;DHT22;7693;49.266;7.104;2023-04-15T18:30:59;12.50;91.40
15184;DHT22;7693;49.266;7.104;2023-04-15T18:33:26;12.40;91.50
15184;DHT22;7693;49.266;7.104;2023-04-15T18:35:51;12.40;91.50
15184;DHT22;7693;49.266;7.104;2023-04-15T18:38:17;12.30;91.60
15184;DHT22;7693;49.266;7.104;2023-04-15T18:40:42;12.20;91.70
15184;DHT22;7693;49.266;7.104;2023-04-15T18:43:08;12.20;91.70
15184;DHT22;7693;49.266;7.104;2023-04-15T18:45:34;12.10;91.80
15184;DHT22;7693;49.266;7.104;2023-04-15T18:48:01;12.10;91.90
15184;DHT22;7693;49.266;7.104;2023-04-15T18:50:26;12.10;92.00
15184;DHT22;7693;49.266;7.104;2023-04-15T18:52:52;12.10;92.00
15184;DHT22;7693;49.266;7.104;2023-04-15T18:55:18;12.00;92.10
15184;DHT22;7693;49.266;7.104;2023-04-15T18:57:43;12.00;92.20
15184;DHT22;7693;49.266;7.104;2023-04-15T19:00:11;12.00;92.30
15184;DHT22;7693;49.266;7.104;2023-04-15T19:02:37;11.90;92.50
15184;DHT22;7693;49.266;7.104;2023-04-15T19:05:04;12.00;92.50
15184;DHT22;7693;49.266;7.104;2023-04-15T19:07:30;11.90;92.50
15184;DHT22;7693;49.266;7.104;2023-04-15T19:09:56;11.90;92.50
15184;DHT22;7693;49.266;7.104;2023-04-15T19:12:21;11.90;92.60
15184;DHT22;7693;49.266;7.104;2023-04-15T19:14:47;11.90;92.70
15184;DHT22;7693;49.266;7.104;2023-04-15T19:17:13;11.90;92.70
15184;DHT22;7693;49.266;7.104;2023-04-15T19:19:38;11.80;92.60
15184;DHT22;7693;49.266;7.104;2023-04-15T19:22:04;11.80;92.90
15184;DHT22;7693;49.266;7.104;2023-04-15T19:24:30;11.80;92.90
15184;DHT22;7693;49.266;7.104;2023-04-15T19:26:56;11.80;92.90
15184;DHT22;7693;49.266;7.104;2023-04-15T19:29:23;11.80;92.90
15184;DHT22;7693;49.266;7.104;2023-04-15T19:31:49;11.80;92.90
15184;DHT22;7693;49.266;7.104;2023-04-15T19:34:14;11.70;93.10
15184;DHT22;7693;49.266;7.104;2023-04-15T19:36:40;11.70;93.10
15184;DHT22;7693;49.266;7.104;2023-04-15T19:39:06;11.70;93.30
15184;DHT22;7693;49.266;7.104;2023-04-15T19:41:32;11.70;93.40
15184;DHT22;7693;49.266;7.104;2023-04-15T19:43:57;11.70;93.50
15184;DHT22;7693;49.266;7.104;2023-04-15T19:46:23;11.70;93.80
15184;DHT22;7693;49.266;7.104;2023-04-15T19:48:48;11.70;93.80
15184;DHT22;7693;49.266;7.104;2023-04-15T19:51:14;11.70;93.80
15184;DHT22;7693;49.266;7.104;2023-04-15T19:53:40;11.70;93.90
15184;DHT22;7693;49.266;7.104;2023-04-15T19:56:05;11.60;94.00
15184;DHT22;7693;49.266;7.104;2023-04-15T19:58:31;11.60;93.90
15184;DHT22;7693;49.266;7.104;2023-04-15T20:00:57;11.50;94.00
15184;DHT22;7693;49.266;7.104;2023-04-15T20:03:23;11.50;94.00
15184;DHT22;7693;49.266;7.104;2023-04-15T20:05:48;11.40;94.10
15184;DHT22;7693;49.266;7.104;2023-04-15T20:08:14;11.30;94.20
15184;DHT22;7693;49.266;7.104;2023-04-15T20:10:40;11.30;94.30
15184;DHT22;7693;49.266;7.104;2023-04-15T20:13:05;11.30;94.40
15184;DHT22;7693;49.266;7.104;2023-04-15T20:15:31;11.30;94.60
15184;DHT22;7693;49.266;7.104;2023-04-15T20:17:56;11.30;94.70
15184;DHT22;7693;49.266;7.104;2023-04-15T20:20:22;11.40;94.80
15184;DHT22;7693;49.266;7.104;2023-04-15T20:22:48;11.30;94.70
15184;DHT22;7693;49.266;7.104;2023-04-15T20:25:13;11.30;94.70
15184;DHT22;7693;49.266;7.104;2023-04-15T20:27:39;11.20;94.80
15184;DHT22;7693;49.266;7.104;2023-04-15T20:30:05;11.20;94.90
15184;DHT22;7693;49.266;7.104;2023-04-15T20:32:32;11.20;95.00
15184;DHT22;7693;49.266;7.104;2023-04-15T20:35:00;11.20;95.10
15184;DHT22;7693;49.266;7.104;2023-04-15T20:37:26;11.20;95.20
15184;DHT22;7693;49.266;7.104;2023-04-15T20:39:51;11.20;95.30
15184;DHT22;7693;49.266;7.104;2023-04-15T20:42:18;11.10;95.30
15184;DHT22;7693;49.266;7.104;2023-04-15T20:44:43;11.00;95.50
15184;DHT22;7693;49.266;7.104;2023-04-15T20:47:09;11.00;95.40
15184;DHT22;7693;49.266;7.104;2023-04-15T20:49:36;11.00;95.60
15184;DHT22;7693;49.266;7.104;2023-04-15T20:52:02;11.00;95.80
15184;DHT22;7693;49.266;7.104;2023-04-15T20:54:28;11.00;95.90
15184;DHT22;7693;49.266;7.104;2023-04-15T20:56:54;11.00;96.00
15184;DHT22;7693;49.266;7.104;2023-04-15T20:59:21;11.00;96.00
15184;DHT22;7693;49.266;7.104;2023-04-15T21:01:47;11.00;96.10
15184;DHT22;7693;49.266;7.104;2023-04-15T21:04:12;11.00;96.10
15184;DHT22;7693;49.266;7.104;2023-04-15T21:06:38;10.90;96.10
15184;DHT22;7693;49.266;7.104;2023-04-15T21:09:03;11.00;96.20
15184;DHT22;7693;49.266;7.104;2023-04-15T21:11:30;10.90;96.30
15184;DHT22;7693;49.266;7.104;2023-04-15T21:13:56;10.90;96.60
15184;DHT22;7693;49.266;7.104;2023-04-15T21:16:22;10.90;96.70
15184;DHT22;7693;49.266;7.104;2023-04-15T21:18:47;10.90;96.80
15184;DHT22;7693;49.266;7.104;2023-04-15T21:21:13;10.90;96.80
15184;DHT22;7693;49.266;7.104;2023-04-15T21:23:38;10.90;97.00
15184;DHT22;7693;49.266;7.104;2023-04-15T21:26:05;10.90;97.00
15184;DHT22;7693;49.266;7.104;2023-04-15T21:28:30;10.90;97.20
15184;DHT22;7693;49.266;7.104;2023-04-15T21:30:56;10.90;97.30
15184;DHT22;7693;49.266;7.104;2023-04-15T21:33:22;10.90;97.20
15184;DHT22;7693;49.266;7.104;2023-04-15T21:35:48;10.80;97.30
15184;DHT22;7693;49.266;7.104;2023-04-15T21:38:13;10.80;97.50
15184;DHT22;7693;49.266;7.104;2023-04-15T21:40:39;10.90;97.50
15184;DHT22;7693;49.266;7.104;2023-04-15T21:43:08;10.80;97.60
